sensor_id;sensor_type;location;lat;lon;timestamp;P1;durP1;ratioP1;P2;durP2;ratioP2
12788;SDS011;6458;42.710;23.192;2022-08-19T00:00:49;4.60;;;4.37;;
12788;SDS011;6458;42.710;23.192;2022-08-19T00:03:16;4.73;;;4.50;;
12788;SDS011;6458;42.710;23.192;2022-08-19T00:05:43;4.97;;;4.67;;
12788;SDS011;6458;42.710;23.192;2022-08-19T00:08:09;4.73;;;4.43;;
12788;SDS011;6458;42.710;23.192;2022-08-19T00:10:36;4.93;;;4.60;;
12788;SDS011;6458;42.710;23.192;2022-08-19T00:13:04;4.83;;;4.53;;
12788;SDS011;6458;42.710;23.192;2022-08-19T00:15:30;4.80;;;4.50;;
12788;SDS011;6458;42.710;23.192;2022-08-19T00:17:58;5.30;;;4.90;;
12788;SDS011;6458;42.710;23.192;2022-08-19T00:20:25;5.33;;;4.90;;
12788;SDS011;6458;42.710;23.192;2022-08-19T00:22:52;4.97;;;4.67;;
12788;SDS011;6458;42.710;23.192;2022-08-19T00:25:19;5.30;;;5.00;;
12788;SDS011;6458;42.710;23.192;2022-08-19T00:27:46;5.07;;;4.67;;
12788;SDS011;6458;42.710;23.192;2022-08-19T00:30:13;5.20;;;4.90;;
12788;SDS011;6458;42.710;23.192;2022-08-19T00:32:39;5.60;;;4.83;;
12788;SDS011;6458;42.710;23.192;2022-08-19T00:35:08;5.00;;;4.50;;
12788;SDS011;6458;42.710;23.192;2022-08-19T00:37:36;5.20;;;4.57;;
12788;SDS011;6458;42.710;23.192;2022-08-19T00:40:04;5.10;;;4.80;;
12788;SDS011;6458;42.710;23.192;2022-08-19T00:42:32;5.23;;;4.73;;
12788;SDS011;6458;42.710;23.192;2022-08-19T00:44:59;5.40;;;5.00;;
12788;SDS011;6458;42.710;23.192;2022-08-19T00:47:25;4.70;;;4.43;;
12788;SDS011;6458;42.710;23.192;2022-08-19T00:49:54;5.20;;;4.70;;
12788;SDS011;6458;42.710;23.192;2022-08-19T00:52:24;5.07;;;4.73;;
12788;SDS011;6458;42.710;23.192;2022-08-19T00:54:54;4.97;;;4.60;;
12788;SDS011;6458;42.710;23.192;2022-08-19T00:57:22;4.77;;;4.37;;
12788;SDS011;6458;42.710;23.192;2022-08-19T00:59:51;4.77;;;4.47;;
12788;SDS011;6458;42.710;23.192;2022-08-19T01:02:19;4.87;;;4.57;;
12788;SDS011;6458;42.710;23.192;2022-08-19T01:04:46;5.60;;;5.10;;
12788;SDS011;6458;42.710;23.192;2022-08-19T01:07:13;5.27;;;4.87;;
12788;SDS011;6458;42.710;23.192;2022-08-19T01:09:41;7.73;;;4.73;;
12788;SDS011;6458;42.710;23.192;2022-08-19T01:12:08;5.20;;;4.70;;
12788;SDS011;6458;42.710;23.192;2022-08-19T01:14:35;5.20;;;4.80;;
12788;SDS011;6458;42.710;23.192;2022-08-19T01:17:02;8.13;;;4.47;;
12788;SDS011;6458;42.710;23.192;2022-08-19T01:19:31;4.87;;;4.47;;
12788;SDS011;6458;42.710;23.192;2022-08-19T01:22:00;5.03;;;4.73;;
12788;SDS011;6458;42.710;23.192;2022-08-19T01:24:30;4.50;;;4.20;;
12788;SDS011;6458;42.710;23.192;2022-08-19T01:26:57;4.93;;;4.63;;
12788;SDS011;6458;42.710;23.192;2022-08-19T01:29:23;4.70;;;4.43;;
12788;SDS011;6458;42.710;23.192;2022-08-19T01:31:50;4.83;;;4.47;;
12788;SDS011;6458;42.710;23.192;2022-08-19T01:34:18;5.40;;;4.97;;
12788;SDS011;6458;42.710;23.192;2022-08-19T01:36:46;4.80;;;4.50;;
12788;SDS011;6458;42.710;23.192;2022-08-19T01:39:15;4.73;;;4.50;;
12788;SDS011;6458;42.710;23.192;2022-08-19T01:41:44;4.83;;;4.43;;
12788;SDS011;6458;42.710;23.192;2022-08-19T01:44:10;5.30;;;4.90;;
12788;SDS011;6458;42.710;23.192;2022-08-19T01:46:37;4.30;;;4.10;;
12788;SDS011;6458;42.710;23.192;2022-08-19T01:49:05;4.90;;;4.60;;
12788;SDS011;6458;42.710;23.192;2022-08-19T01:51:33;4.90;;;4.50;;
12788;SDS011;6458;42.710;23.192;2022-08-19T01:54:00;5.00;;;4.80;;
12788;SDS011;6458;42.710;23.192;2022-08-19T01:56:26;4.67;;;4.37;;
12788;SDS011;6458;42.710;23.192;2022-08-19T01:58:55;4.47;;;4.27;;
12788;SDS011;6458;42.710;23.192;2022-08-19T02:01:22;4.57;;;4.17;;
12788;SDS011;6458;42.710;23.192;2022-08-19T02:03:49;4.47;;;4.17;;
12788;SDS011;6458;42.710;23.192;2022-08-19T02:06:18;5.87;;;4.77;;
12788;SDS011;6458;42.710;23.192;2022-08-19T02:08:45;5.67;;;5.37;;
12788;SDS011;6458;42.710;23.192;2022-08-19T02:11:18;5.20;;;4.80;;
12788;SDS011;6458;42.710;23.192;2022-08-19T02:13:45;5.10;;;4.60;;
12788;SDS011;6458;42.710;23.192;2022-08-19T02:16:13;4.57;;;4.17;;
12788;SDS011;6458;42.710;23.192;2022-08-19T02:18:40;4.97;;;4.67;;
12788;SDS011;6458;42.710;23.192;2022-08-19T02:21:07;4.70;;;4.40;;
12788;SDS011;6458;42.710;23.192;2022-08-19T02:23:33;5.03;;;4.63;;
12788;SDS011;6458;42.710;23.192;2022-08-19T02:26:00;4.83;;;4.53;;
12788;SDS011;6458;42.710;23.192;2022-08-19T02:28:27;4.80;;;4.50;;
12788;SDS011;6458;42.710;23.192;2022-08-19T02:30:54;5.00;;;4.60;;
12788;SDS011;6458;42.710;23.192;2022-08-19T02:33:22;4.97;;;4.33;;
12788;SDS011;6458;42.710;23.192;2022-08-19T02:35:48;4.63;;;4.33;;
12788;SDS011;6458;42.710;23.192;2022-08-19T02:38:15;4.73;;;4.43;;
12788;SDS011;6458;42.710;23.192;2022-08-19T02:40:54;4.90;;;4.50;;
12788;SDS011;6458;42.710;23.192;2022-08-19T02:43:21;4.90;;;4.53;;
12788;SDS011;6458;42.710;23.192;2022-08-19T02:45:48;4.70;;;4.40;;
12788;SDS011;6458;42.710;23.192;2022-08-19T02:48:16;5.30;;;4.80;;
12788;SDS011;6458;42.710;23.192;2022-08-19T02:50:45;5.17;;;4.77;;
12788;SDS011;6458;42.710;23.192;2022-08-19T02:53:12;5.00;;;4.60;;
12788;SDS011;6458;42.710;23.192;2022-08-19T02:55:42;5.13;;;4.83;;
12788;SDS011;6458;42.710;23.192;2022-08-19T02:58:09;4.67;;;4.37;;
12788;SDS011;6458;42.710;23.192;2022-08-19T03:00:36;5.07;;;4.77;;
12788;SDS011;6458;42.710;23.192;2022-08-19T03:03:07;4.97;;;4.57;;
12788;SDS011;6458;42.710;23.192;2022-08-19T03:05:34;7.90;;;5.37;;
12788;SDS011;6458;42.710;23.192;2022-08-19T03:08:02;5.33;;;4.80;;
12788;SDS011;6458;42.710;23.192;2022-08-19T03:10:30;5.27;;;4.77;;
12788;SDS011;6458;42.710;23.192;2022-08-19T03:12:57;5.10;;;4.70;;
12788;SDS011;6458;42.710;23.192;2022-08-19T03:15:24;5.50;;;5.10;;
12788;SDS011;6458;42.710;23.192;2022-08-19T03:17:51;4.77;;;4.50;;
12788;SDS011;6458;42.710;23.192;2022-08-19T03:20:18;6.20;;;5.77;;
12788;SDS011;6458;42.710;23.192;2022-08-19T03:22:44;5.27;;;4.87;;
12788;SDS011;6458;42.710;23.192;2022-08-19T03:25:13;6.30;;;5.80;;
12788;SDS011;6458;42.710;23.192;2022-08-19T03:27:39;5.77;;;5.30;;
12788;SDS011;6458;42.710;23.192;2022-08-19T03:30:06;5.97;;;4.97;;
12788;SDS011;6458;42.710;23.192;2022-08-19T03:32:33;7.03;;;5.77;;
12788;SDS011;6458;42.710;23.192;2022-08-19T03:35:00;6.33;;;5.77;;
12788;SDS011;6458;42.710;23.192;2022-08-19T03:37:27;6.30;;;5.67;;
12788;SDS011;6458;42.710;23.192;2022-08-19T03:39:54;5.03;;;4.73;;
12788;SDS011;6458;42.710;23.192;2022-08-19T03:42:22;5.87;;;5.43;;
12788;SDS011;6458;42.710;23.192;2022-08-19T03:44:50;6.17;;;5.57;;
12788;SDS011;6458;42.710;23.192;2022-08-19T03:47:16;5.53;;;5.10;;
12788;SDS011;6458;42.710;23.192;2022-08-19T03:49:43;5.10;;;4.70;;
12788;SDS011;6458;42.710;23.192;2022-08-19T03:52:10;5.53;;;4.93;;
12788;SDS011;6458;42.710;23.192;2022-08-19T03:54:37;5.80;;;5.30;;
12788;SDS011;6458;42.710;23.192;2022-08-19T03:57:04;6.10;;;5.60;;
12788;SDS011;6458;42.710;23.192;2022-08-19T03:59:34;5.60;;;5.20;;
12788;SDS011;6458;42.710;23.192;2022-08-19T04:02:02;5.77;;;5.27;;
12788;SDS011;6458;42.710;23.192;2022-08-19T04:04:29;6.23;;;5.80;;
12788;SDS011;6458;42.710;23.192;2022-08-19T04:06:56;7.00;;;5.50;;
12788;SDS011;6458;42.710;23.192;2022-08-19T04:09:23;6.53;;;5.77;;
12788;SDS011;6458;42.710;23.192;2022-08-19T04:11:50;6.17;;;5.77;;
12788;SDS011;6458;42.710;23.192;2022-08-19T04:14:20;5.43;;;5.03;;
12788;SDS011;6458;42.710;23.192;2022-08-19T04:16:48;5.37;;;5.00;;
12788;SDS011;6458;42.710;23.192;2022-08-19T04:19:15;6.47;;;5.63;;
12788;SDS011;6458;42.710;23.192;2022-08-19T04:21:42;6.30;;;5.70;;
12788;SDS011;6458;42.710;23.192;2022-08-19T04:24:10;5.70;;;5.33;;
12788;SDS011;6458;42.710;23.192;2022-08-19T04:26:36;5.70;;;5.30;;
12788;SDS011;6458;42.710;23.192;2022-08-19T04:29:05;5.40;;;5.00;;
12788;SDS011;6458;42.710;23.192;2022-08-19T04:31:32;5.07;;;4.87;;
12788;SDS011;6458;42.710;23.192;2022-08-19T04:34:02;5.57;;;5.00;;
12788;SDS011;6458;42.710;23.192;2022-08-19T04:36:30;5.87;;;5.47;;
12788;SDS011;6458;42.710;23.192;2022-08-19T04:38:58;5.50;;;5.03;;
12788;SDS011;6458;42.710;23.192;2022-08-19T04:41:26;4.90;;;4.60;;
12788;SDS011;6458;42.710;23.192;2022-08-19T04:44:10;5.50;;;5.00;;
12788;SDS011;6458;42.710;23.192;2022-08-19T04:46:37;5.33;;;4.93;;
12788;SDS011;6458;42.710;23.192;2022-08-19T04:49:06;5.20;;;4.80;;
12788;SDS011;6458;42.710;23.192;2022-08-19T04:51:33;5.47;;;4.97;;
12788;SDS011;6458;42.710;23.192;2022-08-19T04:54:02;5.30;;;4.90;;
12788;SDS011;6458;42.710;23.192;2022-08-19T04:56:29;6.10;;;5.70;;
12788;SDS011;6458;42.710;23.192;2022-08-19T04:58:56;6.43;;;5.93;;
12788;SDS011;6458;42.710;23.192;2022-08-19T05:01:24;6.07;;;5.60;;
12788;SDS011;6458;42.710;23.192;2022-08-19T05:03:51;6.03;;;5.60;;
12788;SDS011;6458;42.710;23.192;2022-08-19T05:06:19;6.30;;;5.70;;
12788;SDS011;6458;42.710;23.192;2022-08-19T05:08:47;6.13;;;5.73;;
12788;SDS011;6458;42.710;23.192;2022-08-19T05:11:15;6.53;;;6.03;;
12788;SDS011;6458;42.710;23.192;2022-08-19T05:13:42;6.23;;;5.83;;
12788;SDS011;6458;42.710;23.192;2022-08-19T05:16:09;6.47;;;5.87;;
12788;SDS011;6458;42.710;23.192;2022-08-19T05:18:36;5.97;;;5.43;;
12788;SDS011;6458;42.710;23.192;2022-08-19T05:21:21;6.97;;;6.40;;
12788;SDS011;6458;42.710;23.192;2022-08-19T05:24:06;6.97;;;6.37;;
12788;SDS011;6458;42.710;23.192;2022-08-19T05:26:34;6.67;;;6.07;;
12788;SDS011;6458;42.710;23.192;2022-08-19T05:29:01;6.03;;;5.63;;
12788;SDS011;6458;42.710;23.192;2022-08-19T05:31:28;6.50;;;6.00;;
12788;SDS011;6458;42.710;23.192;2022-08-19T05:33:55;6.80;;;6.20;;
12788;SDS011;6458;42.710;23.192;2022-08-19T05:36:25;6.93;;;6.43;;
12788;SDS011;6458;42.710;23.192;2022-08-19T05:38:52;6.70;;;6.13;;
12788;SDS011;6458;42.710;23.192;2022-08-19T05:41:19;6.50;;;6.10;;
12788;SDS011;6458;42.710;23.192;2022-08-19T05:43:46;6.77;;;6.27;;
12788;SDS011;6458;42.710;23.192;2022-08-19T05:46:15;6.97;;;6.37;;
12788;SDS011;6458;42.710;23.192;2022-08-19T05:48:43;7.30;;;6.60;;
12788;SDS011;6458;42.710;23.192;2022-08-19T05:51:10;6.90;;;6.30;;
12788;SDS011;6458;42.710;23.192;2022-08-19T05:53:38;6.60;;;6.20;;
12788;SDS011;6458;42.710;23.192;2022-08-19T05:56:05;6.90;;;6.40;;
12788;SDS011;6458;42.710;23.192;2022-08-19T05:58:32;7.70;;;7.00;;
12788;SDS011;6458;42.710;23.192;2022-08-19T06:00:59;6.97;;;6.37;;
12788;SDS011;6458;42.710;23.192;2022-08-19T06:03:29;6.87;;;6.37;;
12788;SDS011;6458;42.710;23.192;2022-08-19T06:05:57;6.57;;;6.07;;
12788;SDS011;6458;42.710;23.192;2022-08-19T06:08:25;9.33;;;6.60;;
12788;SDS011;6458;42.710;23.192;2022-08-19T06:10:54;6.87;;;6.17;;
12788;SDS011;6458;42.710;23.192;2022-08-19T06:13:35;6.90;;;6.30;;
12788;SDS011;6458;42.710;23.192;2022-08-19T06:16:04;7.67;;;6.90;;
12788;SDS011;6458;42.710;23.192;2022-08-19T06:18:31;7.60;;;6.87;;
12788;SDS011;6458;42.710;23.192;2022-08-19T06:20:58;7.17;;;6.57;;
12788;SDS011;6458;42.710;23.192;2022-08-19T06:23:25;7.23;;;6.63;;
12788;SDS011;6458;42.710;23.192;2022-08-19T06:25:52;7.60;;;6.90;;
12788;SDS011;6458;42.710;23.192;2022-08-19T06:28:20;10.20;;;7.50;;
12788;SDS011;6458;42.710;23.192;2022-08-19T06:30:49;7.40;;;6.80;;
12788;SDS011;6458;42.710;23.192;2022-08-19T06:33:16;8.40;;;7.63;;
12788;SDS011;6458;42.710;23.192;2022-08-19T06:35:43;8.73;;;7.13;;
12788;SDS011;6458;42.710;23.192;2022-08-19T06:38:09;7.73;;;7.13;;
12788;SDS011;6458;42.710;23.192;2022-08-19T06:40:38;7.83;;;7.13;;
12788;SDS011;6458;42.710;23.192;2022-08-19T06:43:05;7.63;;;7.03;;
12788;SDS011;6458;42.710;23.192;2022-08-19T06:45:33;8.33;;;7.00;;
12788;SDS011;6458;42.710;23.192;2022-08-19T06:48:01;7.67;;;7.00;;
12788;SDS011;6458;42.710;23.192;2022-08-19T06:50:28;9.10;;;7.57;;
12788;SDS011;6458;42.710;23.192;2022-08-19T06:52:57;8.53;;;7.10;;
12788;SDS011;6458;42.710;23.192;2022-08-19T06:55:23;8.13;;;7.27;;
12788;SDS011;6458;42.710;23.192;2022-08-19T06:57:50;7.53;;;6.93;;
12788;SDS011;6458;42.710;23.192;2022-08-19T07:00:18;9.23;;;7.37;;
12788;SDS011;6458;42.710;23.192;2022-08-19T07:02:46;8.43;;;7.50;;
12788;SDS011;6458;42.710;23.192;2022-08-19T07:05:14;8.00;;;6.80;;
12788;SDS011;6458;42.710;23.192;2022-08-19T07:07:41;9.00;;;7.33;;
12788;SDS011;6458;42.710;23.192;2022-08-19T07:10:08;7.80;;;7.10;;
12788;SDS011;6458;42.710;23.192;2022-08-19T07:12:37;7.60;;;6.90;;
12788;SDS011;6458;42.710;23.192;2022-08-19T07:15:05;6.77;;;6.20;;
12788;SDS011;6458;42.710;23.192;2022-08-19T07:17:33;8.30;;;7.30;;
12788;SDS011;6458;42.710;23.192;2022-08-19T07:20:10;11.20;;;7.20;;
12788;SDS011;6458;42.710;23.192;2022-08-19T07:22:37;9.07;;;6.73;;
12788;SDS011;6458;42.710;23.192;2022-08-19T07:25:05;8.73;;;7.37;;
12788;SDS011;6458;42.710;23.192;2022-08-19T07:27:32;13.20;;;6.90;;
12788;SDS011;6458;42.710;23.192;2022-08-19T07:29:59;8.60;;;6.97;;
12788;SDS011;6458;42.710;23.192;2022-08-19T07:32:26;7.40;;;6.80;;
12788;SDS011;6458;42.710;23.192;2022-08-19T07:34:53;8.87;;;7.10;;
12788;SDS011;6458;42.710;23.192;2022-08-19T07:37:22;7.63;;;6.40;;
12788;SDS011;6458;42.710;23.192;2022-08-19T07:39:49;9.47;;;7.17;;
12788;SDS011;6458;42.710;23.192;2022-08-19T07:42:16;9.20;;;7.07;;
12788;SDS011;6458;42.710;23.192;2022-08-19T07:44:43;7.70;;;6.87;;
12788;SDS011;6458;42.710;23.192;2022-08-19T07:47:09;7.53;;;6.90;;
12788;SDS011;6458;42.710;23.192;2022-08-19T07:49:38;7.40;;;6.50;;
12788;SDS011;6458;42.710;23.192;2022-08-19T07:52:06;11.27;;;6.23;;
12788;SDS011;6458;42.710;23.192;2022-08-19T07:54:36;7.77;;;6.70;;
12788;SDS011;6458;42.710;23.192;2022-08-19T07:57:03;8.73;;;6.70;;
12788;SDS011;6458;42.710;23.192;2022-08-19T07:59:31;6.80;;;6.20;;
12788;SDS011;6458;42.710;23.192;2022-08-19T08:01:57;7.13;;;6.43;;
12788;SDS011;6458;42.710;23.192;2022-08-19T08:04:25;8.33;;;6.57;;
12788;SDS011;6458;42.710;23.192;2022-08-19T08:07:09;6.87;;;6.37;;
12788;SDS011;6458;42.710;23.192;2022-08-19T08:09:54;7.30;;;6.70;;
12788;SDS011;6458;42.710;23.192;2022-08-19T08:12:22;7.03;;;5.77;;
12788;SDS011;6458;42.710;23.192;2022-08-19T08:14:51;6.77;;;6.17;;
12788;SDS011;6458;42.710;23.192;2022-08-19T08:17:20;7.20;;;6.50;;
12788;SDS011;6458;42.710;23.192;2022-08-19T08:19:47;6.57;;;5.97;;
12788;SDS011;6458;42.710;23.192;2022-08-19T08:22:16;9.33;;;6.50;;
12788;SDS011;6458;42.710;23.192;2022-08-19T08:24:59;6.90;;;6.20;;
12788;SDS011;6458;42.710;23.192;2022-08-19T08:27:26;6.70;;;6.20;;
12788;SDS011;6458;42.710;23.192;2022-08-19T08:29:54;6.07;;;5.67;;
12788;SDS011;6458;42.710;23.192;2022-08-19T08:32:22;6.70;;;6.17;;
12788;SDS011;6458;42.710;23.192;2022-08-19T08:34:51;5.93;;;5.53;;
12788;SDS011;6458;42.710;23.192;2022-08-19T08:37:21;5.80;;;5.23;;
12788;SDS011;6458;42.710;23.192;2022-08-19T08:39:48;5.15;;;4.65;;
12788;SDS011;6458;42.710;23.192;2022-08-19T08:42:19;5.20;;;4.80;;
12788;SDS011;6458;42.710;23.192;2022-08-19T08:44:48;4.25;;;4.05;;
12788;SDS011;6458;42.710;23.192;2022-08-19T08:47:17;4.40;;;4.10;;
12788;SDS011;6458;42.710;23.192;2022-08-19T08:49:45;4.18;;;3.90;;
12788;SDS011;6458;42.710;23.192;2022-08-19T08:52:16;3.83;;;3.63;;
12788;SDS011;6458;42.710;23.192;2022-08-19T08:54:44;4.20;;;4.00;;
12788;SDS011;6458;42.710;23.192;2022-08-19T08:57:12;4.90;;;4.30;;
12788;SDS011;6458;42.710;23.192;2022-08-19T08:59:41;4.45;;;4.10;;
12788;SDS011;6458;42.710;23.192;2022-08-19T09:02:15;4.13;;;3.92;;
12788;SDS011;6458;42.710;23.192;2022-08-19T09:04:42;4.10;;;3.80;;
12788;SDS011;6458;42.710;23.192;2022-08-19T09:07:13;5.20;;;4.70;;
12788;SDS011;6458;42.710;23.192;2022-08-19T09:09:45;4.15;;;3.95;;
12788;SDS011;6458;42.710;23.192;2022-08-19T09:12:15;4.18;;;3.72;;
12788;SDS011;6458;42.710;23.192;2022-08-19T09:14:47;4.60;;;4.30;;
12788;SDS011;6458;42.710;23.192;2022-08-19T09:17:14;3.70;;;3.50;;
12788;SDS011;6458;42.710;23.192;2022-08-19T09:19:49;4.25;;;4.05;;
12788;SDS011;6458;42.710;23.192;2022-08-19T09:22:17;3.72;;;3.53;;
12788;SDS011;6458;42.710;23.192;2022-08-19T09:24:46;4.82;;;3.60;;
12788;SDS011;6458;42.710;23.192;2022-08-19T09:27:12;4.03;;;3.83;;
12788;SDS011;6458;42.710;23.192;2022-08-19T09:29:39;4.05;;;3.85;;
12788;SDS011;6458;42.710;23.192;2022-08-19T09:32:07;4.00;;;3.80;;
12788;SDS011;6458;42.710;23.192;2022-08-19T09:34:34;4.65;;;4.25;;
12788;SDS011;6458;42.710;23.192;2022-08-19T09:37:01;4.20;;;3.63;;
12788;SDS011;6458;42.710;23.192;2022-08-19T09:39:28;3.75;;;3.55;;
12788;SDS011;6458;42.710;23.192;2022-08-19T09:41:55;3.88;;;3.67;;
12788;SDS011;6458;42.710;23.192;2022-08-19T09:44:22;3.47;;;3.28;;
12788;SDS011;6458;42.710;23.192;2022-08-19T09:46:49;3.58;;;3.38;;
12788;SDS011;6458;42.710;23.192;2022-08-19T09:49:18;3.58;;;3.28;;
12788;SDS011;6458;42.710;23.192;2022-08-19T09:51:49;3.97;;;3.78;;
12788;SDS011;6458;42.710;23.192;2022-08-19T09:54:16;3.90;;;3.60;;
12788;SDS011;6458;42.710;23.192;2022-08-19T09:56:42;3.55;;;3.25;;
12788;SDS011;6458;42.710;23.192;2022-08-19T09:59:09;3.70;;;3.40;;
12788;SDS011;6458;42.710;23.192;2022-08-19T10:01:44;3.00;;;2.90;;
12788;SDS011;6458;42.710;23.192;2022-08-19T10:04:27;3.30;;;3.10;;
12788;SDS011;6458;42.710;23.192;2022-08-19T10:07:16;3.30;;;3.00;;
12788;SDS011;6458;42.710;23.192;2022-08-19T10:09:57;3.45;;;3.35;;
12788;SDS011;6458;42.710;23.192;2022-08-19T10:13:25;3.95;;;3.65;;
12788;SDS011;6458;42.710;23.192;2022-08-19T10:18:59;4.10;;;3.90;;
12788;SDS011;6458;42.710;23.192;2022-08-19T10:24:28;4.10;;;3.70;;
12788;SDS011;6458;42.710;23.192;2022-08-19T10:26:56;4.25;;;3.88;;
12788;SDS011;6458;42.710;23.192;2022-08-19T10:29:40;3.80;;;3.50;;
12788;SDS011;6458;42.710;23.192;2022-08-19T10:32:20;3.90;;;3.60;;
12788;SDS011;6458;42.710;23.192;2022-08-19T10:35:16;3.88;;;3.58;;
12788;SDS011;6458;42.710;23.192;2022-08-19T10:40:47;3.92;;;3.72;;
12788;SDS011;6458;42.710;23.192;2022-08-19T10:43:28;4.40;;;4.10;;
12788;SDS011;6458;42.710;23.192;2022-08-19T10:49:06;4.20;;;4.00;;
12788;SDS011;6458;42.710;23.192;2022-08-19T10:51:40;4.60;;;4.32;;
12788;SDS011;6458;42.710;23.192;2022-08-19T10:54:25;4.47;;;4.18;;
12788;SDS011;6458;42.710;23.192;2022-08-19T10:57:12;4.70;;;4.32;;
12788;SDS011;6458;42.710;23.192;2022-08-19T10:59:43;4.13;;;3.92;;
12788;SDS011;6458;42.710;23.192;2022-08-19T11:02:16;4.60;;;4.30;;
12788;SDS011;6458;42.710;23.192;2022-08-19T11:04:48;3.90;;;3.70;;
12788;SDS011;6458;42.710;23.192;2022-08-19T11:07:22;5.25;;;3.95;;
12788;SDS011;6458;42.710;23.192;2022-08-19T11:12:54;4.57;;;4.18;;
12788;SDS011;6458;42.710;23.192;2022-08-19T11:18:24;3.92;;;3.65;;
12788;SDS011;6458;42.710;23.192;2022-08-19T11:21:04;3.97;;;3.78;;
12788;SDS011;6458;42.710;23.192;2022-08-19T11:26:39;4.35;;;4.03;;
12788;SDS011;6458;42.710;23.192;2022-08-19T11:29:23;4.60;;;4.18;;
12788;SDS011;6458;42.710;23.192;2022-08-19T11:34:27;4.50;;;4.25;;
12788;SDS011;6458;42.710;23.192;2022-08-19T11:40:10;4.03;;;3.80;;
12788;SDS011;6458;42.710;23.192;2022-08-19T11:49:04;5.05;;;4.03;;
12788;SDS011;6458;42.710;23.192;2022-08-19T11:57:46;4.35;;;4.05;;
12788;SDS011;6458;42.710;23.192;2022-08-19T12:00:13;4.60;;;4.20;;
12788;SDS011;6458;42.710;23.192;2022-08-19T12:02:40;4.60;;;4.20;;
12788;SDS011;6458;42.710;23.192;2022-08-19T12:05:16;4.32;;;4.05;;
12788;SDS011;6458;42.710;23.192;2022-08-19T12:14:16;4.20;;;3.95;;
12788;SDS011;6458;42.710;23.192;2022-08-19T12:16:54;4.63;;;4.32;;
12788;SDS011;6458;42.710;23.192;2022-08-19T12:28:34;5.10;;;3.72;;
12788;SDS011;6458;42.710;23.192;2022-08-19T12:37:06;4.57;;;4.18;;
12788;SDS011;6458;42.710;23.192;2022-08-19T12:39:39;4.70;;;4.40;;
12788;SDS011;6458;42.710;23.192;2022-08-19T12:42:54;5.93;;;4.30;;
12788;SDS011;6458;42.710;23.192;2022-08-19T12:45:38;4.30;;;4.10;;
12788;SDS011;6458;42.710;23.192;2022-08-19T12:57:12;5.25;;;4.75;;
12788;SDS011;6458;42.710;23.192;2022-08-19T13:02:46;4.45;;;4.15;;
12788;SDS011;6458;42.710;23.192;2022-08-19T13:05:15;4.50;;;4.18;;
12788;SDS011;6458;42.710;23.192;2022-08-19T13:07:45;4.90;;;4.50;;
12788;SDS011;6458;42.710;23.192;2022-08-19T13:10:21;4.57;;;4.25;;
12788;SDS011;6458;42.710;23.192;2022-08-19T13:13:03;4.70;;;4.30;;
12788;SDS011;6458;42.710;23.192;2022-08-19T13:16:27;5.28;;;4.00;;
12788;SDS011;6458;42.710;23.192;2022-08-19T13:22:33;5.47;;;4.13;;
12788;SDS011;6458;42.710;23.192;2022-08-19T13:25:14;4.20;;;3.90;;
12788;SDS011;6458;42.710;23.192;2022-08-19T13:27:59;4.28;;;3.90;;
12788;SDS011;6458;42.710;23.192;2022-08-19T13:33:29;4.90;;;4.50;;
12788;SDS011;6458;42.710;23.192;2022-08-19T13:36:06;5.40;;;4.20;;
12788;SDS011;6458;42.710;23.192;2022-08-19T13:38:37;4.40;;;4.03;;
12788;SDS011;6458;42.710;23.192;2022-08-19T13:41:33;4.40;;;4.10;;
12788;SDS011;6458;42.710;23.192;2022-08-19T13:47:04;4.55;;;4.25;;
12788;SDS011;6458;42.710;23.192;2022-08-19T13:52:33;4.32;;;4.03;;
12788;SDS011;6458;42.710;23.192;2022-08-19T13:55:20;4.65;;;4.25;;
12788;SDS011;6458;42.710;23.192;2022-08-19T13:58:10;4.47;;;4.18;;
12788;SDS011;6458;42.710;23.192;2022-08-19T14:00:47;4.65;;;4.10;;
12788;SDS011;6458;42.710;23.192;2022-08-19T14:03:14;4.30;;;3.97;;
12788;SDS011;6458;42.710;23.192;2022-08-19T14:05:41;5.03;;;4.63;;
12788;SDS011;6458;42.710;23.192;2022-08-19T14:08:08;8.10;;;4.32;;
12788;SDS011;6458;42.710;23.192;2022-08-19T14:13:46;5.07;;;4.60;;
12788;SDS011;6458;42.710;23.192;2022-08-19T14:16:26;4.50;;;4.20;;
12788;SDS011;6458;42.710;23.192;2022-08-19T14:18:55;4.63;;;4.38;;
12788;SDS011;6458;42.710;23.192;2022-08-19T14:21:22;4.33;;;3.93;;
12788;SDS011;6458;42.710;23.192;2022-08-19T14:24:02;4.65;;;4.32;;
12788;SDS011;6458;42.710;23.192;2022-08-19T14:26:46;4.73;;;4.43;;
12788;SDS011;6458;42.710;23.192;2022-08-19T14:29:25;5.07;;;4.68;;
12788;SDS011;6458;42.710;23.192;2022-08-19T14:32:05;4.40;;;4.20;;
12788;SDS011;6458;42.710;23.192;2022-08-19T14:34:37;4.97;;;4.57;;
12788;SDS011;6458;42.710;23.192;2022-08-19T14:37:15;4.25;;;3.95;;
12788;SDS011;6458;42.710;23.192;2022-08-19T14:39:53;4.70;;;4.40;;
12788;SDS011;6458;42.710;23.192;2022-08-19T14:42:21;5.57;;;5.07;;
12788;SDS011;6458;42.710;23.192;2022-08-19T14:45:04;5.53;;;5.13;;
12788;SDS011;6458;42.710;23.192;2022-08-19T14:50:32;5.88;;;4.93;;
12788;SDS011;6458;42.710;23.192;2022-08-19T14:53:17;5.20;;;4.80;;
12788;SDS011;6458;42.710;23.192;2022-08-19T14:55:58;4.85;;;4.55;;
12788;SDS011;6458;42.710;23.192;2022-08-19T14:58:45;5.23;;;4.77;;
12788;SDS011;6458;42.710;23.192;2022-08-19T15:01:26;4.57;;;4.27;;
12788;SDS011;6458;42.710;23.192;2022-08-19T15:06:43;5.43;;;4.93;;
12788;SDS011;6458;42.710;23.192;2022-08-19T15:09:12;5.73;;;5.20;;
12788;SDS011;6458;42.710;23.192;2022-08-19T15:11:39;5.47;;;5.07;;
12788;SDS011;6458;42.710;23.192;2022-08-19T15:14:28;5.10;;;4.80;;
12788;SDS011;6458;42.710;23.192;2022-08-19T15:17:08;5.47;;;5.13;;
12788;SDS011;6458;42.710;23.192;2022-08-19T15:19:53;5.53;;;5.03;;
12788;SDS011;6458;42.710;23.192;2022-08-19T15:22:38;4.97;;;4.67;;
12788;SDS011;6458;42.710;23.192;2022-08-19T15:28:08;5.47;;;5.10;;
12788;SDS011;6458;42.710;23.192;2022-08-19T15:30:38;5.17;;;4.77;;
12788;SDS011;6458;42.710;23.192;2022-08-19T15:33:05;5.03;;;4.73;;
12788;SDS011;6458;42.710;23.192;2022-08-19T15:35:32;5.20;;;4.90;;
12788;SDS011;6458;42.710;23.192;2022-08-19T15:37:59;5.50;;;5.10;;
12788;SDS011;6458;42.710;23.192;2022-08-19T15:40:26;5.30;;;4.93;;
12788;SDS011;6458;42.710;23.192;2022-08-19T15:42:53;5.50;;;5.20;;
12788;SDS011;6458;42.710;23.192;2022-08-19T15:45:20;4.70;;;4.40;;
12788;SDS011;6458;42.710;23.192;2022-08-19T15:47:48;5.13;;;4.83;;
12788;SDS011;6458;42.710;23.192;2022-08-19T15:50:16;5.50;;;5.00;;
12788;SDS011;6458;42.710;23.192;2022-08-19T15:52:45;4.97;;;4.60;;
12788;SDS011;6458;42.710;23.192;2022-08-19T15:55:12;5.07;;;4.77;;
12788;SDS011;6458;42.710;23.192;2022-08-19T15:57:42;6.20;;;5.70;;
12788;SDS011;6458;42.710;23.192;2022-08-19T16:00:26;5.73;;;5.07;;
12788;SDS011;6458;42.710;23.192;2022-08-19T16:03:12;5.87;;;5.30;;
12788;SDS011;6458;42.710;23.192;2022-08-19T16:05:56;5.33;;;5.03;;
12788;SDS011;6458;42.710;23.192;2022-08-19T16:08:40;5.63;;;5.23;;
12788;SDS011;6458;42.710;23.192;2022-08-19T16:11:09;6.10;;;5.70;;
12788;SDS011;6458;42.710;23.192;2022-08-19T16:13:37;5.37;;;4.93;;
12788;SDS011;6458;42.710;23.192;2022-08-19T16:16:04;6.17;;;5.67;;
12788;SDS011;6458;42.710;23.192;2022-08-19T16:18:34;7.20;;;5.20;;
12788;SDS011;6458;42.710;23.192;2022-08-19T16:21:02;5.80;;;5.40;;
12788;SDS011;6458;42.710;23.192;2022-08-19T16:23:29;6.27;;;5.57;;
12788;SDS011;6458;42.710;23.192;2022-08-19T16:25:56;6.87;;;6.13;;
12788;SDS011;6458;42.710;23.192;2022-08-19T16:28:22;6.10;;;5.53;;
12788;SDS011;6458;42.710;23.192;2022-08-19T16:30:49;6.17;;;5.63;;
12788;SDS011;6458;42.710;23.192;2022-08-19T16:33:16;5.87;;;5.37;;
12788;SDS011;6458;42.710;23.192;2022-08-19T16:35:44;6.37;;;5.87;;
12788;SDS011;6458;42.710;23.192;2022-08-19T16:38:11;5.90;;;5.50;;
12788;SDS011;6458;42.710;23.192;2022-08-19T16:40:38;6.30;;;5.90;;
12788;SDS011;6458;42.710;23.192;2022-08-19T16:43:04;6.70;;;6.20;;
12788;SDS011;6458;42.710;23.192;2022-08-19T16:45:32;6.60;;;6.07;;